• Join FlightAware (Why Join?)
  • Login
  • US Flag 
01:25PM EDT


 

Airport Tracker/Info


-or-


 

Live Flight TrackerFlight Track Log ✈ N121JM ✈ 28-Apr-2013 ✈ KPBI - KMMU

Flight Track Log - Related Links

Times and Time Zones

All times are in EDT time to prevent confusion due to time zone crossing. See the N121JM flight status page for this flight to view local times or setup timezone preferences in your user account.

Time Position Orientation Groundspeed Altitude Reporting Facility
EDT Latitude Longitude Course Direction KTS MPH feet Rate Location/Type
03:51PM 26.7131 -79.9917 50° Northeast 216 249 5,200  Level Miami Center
03:52PM 26.7731 -79.9211 46° Northeast 234 269 8,800 2,700 Climbing Miami Center
03:53PM 26.8225 -79.8547 50° Northeast 268 308 10,700 2,100 Climbing Miami Center
03:54PM 26.8825 -79.7725 51° Northeast 326 375 13,000 2,340 Climbing Miami Center
03:55PM 27.0444 -79.4963 50° Northeast  Level FlightAware Approximate
03:55PM 26.9514 -79.6694 53° Northeast 368 423 15,400  Level Miami Center
03:56PM 27.0181 -79.5683 53° Northeast 387 445 17,800 2,280 Climbing Miami Center
03:57PM 27.0783 -79.4719 55° Northeast 407 468 20,000 1,920 Climbing Miami Center
03:58PM 27.1450 -79.3661 55° Northeast 415 478 21,700 1,320 Climbing Miami Center
03:59PM 27.2200 -79.2486 54° Northeast 420 483 22,700 600 Climbing Miami Center
04:00PM 27.2886 -79.1400 55° Northeast 420 483 23,000 240 Climbing Miami Center
04:01PM 27.3656 -79.0317 51° Northeast 431 496 23,200 840 Climbing Miami Center
04:02PM 27.4606 -78.9633 33° Northeast 436 502 24,700 1,620 Climbing Miami Center
04:03PM 27.5781 -78.9278 15° North 436 502 26,500 1,860 Climbing Miami Center
04:04PM 27.7119 -78.9069 North 429 494 28,500 1,800 Climbing Miami Center
04:05PM 27.8333 -78.8878 North 434 499 30,200 1,620 Climbing Miami Center
04:06PM 27.9419 -78.8756 North 434 499 31,800 1,380 Climbing Miami Center
04:07PM 28.0675 -78.8661 North 439 505 33,000 1,500 Climbing Miami Center
04:08PM 28.1950 -78.8494 North 447 514 34,800 1,800 Climbing Miami Center
04:09PM 28.3122 -78.8328 North 441 507 36,700 1,860 Climbing Miami Center
04:10PM 28.4375 -78.8161 North 446 513 38,600 1,680 Climbing Miami Center
04:11PM 28.5506 -78.7967 North 434 499 40,100 1,080 Climbing Miami Center
04:12PM 28.6739 -78.7775 North 429 494 40,800 420 Climbing Miami Center
04:13PM 28.7931 -78.7608 North 429 494 41,000 60 Climbing Miami Center
04:14PM 28.9333 -78.7394 North 438 504 41,000  Level Miami Center
04:15PM 29.0586 -78.7250 North 454 522 41,000  Level Miami Center
04:16PM 29.1800 -78.7031 North 449 517 41,000  Level Miami Center
04:17PM 29.3031 -78.6861 North 444 511 41,000  Level Miami Center
04:18PM 29.4286 -78.6717 North 444 511 41,000  Level Miami Center
04:19PM 29.5539 -78.6594 North 444 511 41,000  Level Miami Center
04:20PM 29.6900 -78.6231 13° North 436 502 41,000  Level Jacksonville Center
04:21PM 29.8189 -78.6103 North 449 517 41,000 180 Level Jacksonville Center
04:22PM 29.9478 -78.5972 North 455 524 41,400 540 Climbing Jacksonville Center
04:23PM 30.0661 -78.5728 10° North 437 503 42,200 660 Climbing Jacksonville Center
04:24PM 30.2092 -78.5494 North 434 499 42,900 360 Climbing Jacksonville Center
04:25PM 30.3278 -78.5369 North 439 505 43,000  Climbing Jacksonville Center
04:26PM 30.4481 -78.5169 North 445 512 43,000  Level Jacksonville Center
04:27PM 30.5686 -78.4969 North 445 512 43,000  Level Jacksonville Center
04:28PM 30.6994 -78.4767 North 450 518 43,000  Level Jacksonville Center
04:29PM 30.8217 -78.4564 North 455 524 43,000  Level Jacksonville Center
04:30PM 30.9464 -78.4361 North 455 524 43,000  Level Jacksonville Center
04:31PM 31.0708 -78.4156 North 455 524 43,000  Level Jacksonville Center
04:32PM 31.1933 -78.4000 North 448 516 43,000  Level Jacksonville Center
04:33PM 31.3200 -78.3769 North 448 516 43,000  Level Jacksonville Center
04:34PM 31.4444 -78.3539 North 443 510 43,000  Level Jacksonville Center
04:35PM 31.5711 -78.3356 North 443 510 43,000  Level Jacksonville Center
04:36PM 31.6936 -78.3147 North 448 516 43,000  Level Jacksonville Center
04:37PM 31.8158 -78.2942 North 448 516 43,000  Level Jacksonville Center
04:38PM 31.9425 -78.2731 North 442 509 43,000  Level Jacksonville Center
04:39PM 32.0708 -78.2469 10° North 449 517 43,000  Level Jacksonville Center
04:40PM 32.1972 -78.2208 10° North 454 522 43,000  Level Jacksonville Center
04:41PM 32.3219 -78.2072 North 454 522 43,000  Level Jacksonville Center
04:42PM 32.4464 -78.1861 North 454 522 43,000  Level Jacksonville Center
04:43PM 32.5728 -78.1622 North 459 528 43,000  Level Jacksonville Center
04:44PM 32.6975 -78.1458 North 459 528 43,000  Level Jacksonville Center
04:46PM 32.9753 -78.1011 North 459 528 43,000  Level Washington Center
04:47PM 33.0989 -78.0800 North 459 528 43,000  Level Washington Center
04:48PM 33.2264 -78.0614 North 459 528 43,000  Level Washington Center
04:49PM 33.3519 -78.0378 North 459 528 43,000  Level Washington Center
04:50PM 33.4817 -78.0192 North 459 528 43,000  Level Washington Center
04:51PM 33.6094 -77.9978 North 464 534 43,000  Level Washington Center
04:52PM 33.7350 -77.9789 North 464 534 43,000  Level Washington Center
04:53PM 33.8669 -77.9578 North 464 534 43,000  Level Washington Center
04:54PM 33.9967 -77.9339 North 470 541 43,000  Level Washington Center
04:55PM 34.1242 -77.9225 North 464 534 43,000  Level Washington Center
04:56PM 34.2514 -77.9211 North 464 534 43,000  Level Washington Center
04:57PM 34.3725 -77.9194 North 471 542 43,000  Level Washington Center
04:58PM 34.4997 -77.9131 North 471 542 43,000  Level Washington Center
04:59PM 34.6314 -77.9117 360° North 465 535 43,000  Level Washington Center
05:00PM 34.7608 -77.9078 North 460 529 43,000  Level Washington Center
05:01PM 34.8839 -77.9036 North 455 524 43,000  Level Washington Center
05:02PM 35.0133 -77.8997 North 455 524 43,000  Level Washington Center
05:03PM 35.1408 -77.8933 North 460 529 43,000  Level Washington Center
05:04PM 35.2744 -77.8894 North 460 529 43,000  Level Washington Center
05:05PM 35.4058 -77.8856 North 465 535 43,000  Level Washington Center
05:06PM 35.5353 -77.8817 North 465 535 43,000  Level Washington Center
05:07PM 35.6689 -77.8803 360° North 465 535 43,000  Level Washington Center
05:08PM 35.7983 -77.8764 North 465 535 43,000  Level Washington Center
05:09PM 35.9303 -77.8519 North 465 535 43,000  Level Washington Center
05:10PM 36.0542 -77.8042 17° North 465 535 43,000  Level Washington Center
05:11PM 36.1761 -77.7586 17° North 460 529 43,000  Level Washington Center
05:12PM 36.3000 -77.7106 17° North 460 529 43,000  Level Washington Center
05:13PM 36.4261 -77.6597 18° North 460 529 43,000  Level Washington Center
05:14PM 36.5458 -77.6136 17° North 460 529 43,000  Level Washington Center
05:15PM 36.6697 -77.5653 17° North 460 529 43,000  Level Washington Center
05:16PM 36.7936 -77.5164 18° North 460 529 43,000  Level Washington Center
05:17PM 36.9175 -77.4675 18° North 460 529 43,000  Level Washington Center
05:18PM 37.0414 -77.4186 17° North 460 529 43,000  Level Washington Center
05:19PM 37.1653 -77.3719 17° North 460 529 43,000  Level Washington Center
05:20PM 37.2911 -77.3228 17° North 460 529 43,000 -60 Level Washington Center
05:21PM 37.4128 -77.2625 21° North 460 529 42,900 -300 Descending Washington Center
05:22PM 37.5328 -77.1894 26° Northeast 466 536 42,500 -660 Descending Washington Center
05:23PM 37.6483 -77.1131 28° Northeast 471 542 41,600 -1,200 Descending Washington Center
05:24PM 37.7661 -77.0444 25° Northeast 463 533 40,200 -1,440 Descending Washington Center
05:25PM 37.8794 -76.9756 26° Northeast 451 519 38,700 -1,500 Descending Washington Center
05:26PM 37.9992 -76.9067 24° Northeast 451 519 37,200 -1,560 Descending Washington Center
05:27PM 38.1189 -76.8375 24° Northeast 462 532 35,700 -1,320 Descending Washington Center
05:28PM 38.2425 -76.7656 25° Northeast 467 537 34,600 -780 Descending Washington Center
05:29PM 38.3642 -76.6958 24° Northeast 467 537 34,200 -360 Descending Washington Center
05:30PM 38.4878 -76.6261 24° Northeast 467 537 33,900 -780 Descending Washington Center
05:31PM 38.6114 -76.5536 25° Northeast 472 543 32,700 -1,860 Descending Washington Center
05:32PM 38.7369 -76.4778 25° Northeast 484 557 30,300 -2,460 Descending Washington Center
05:33PM 38.8625 -76.4075 24° Northeast 484 557 27,800 -2,460 Descending Washington Center
05:34PM 38.9839 -76.3314 26° Northeast 479 551 25,400 -1,920 Descending Washington Center
05:35PM 39.1011 -76.2631 24° Northeast 467 537 24,100 -720 Descending Washington Center
05:36PM 39.2183 -76.1569 35° Northeast 453 521 24,000 -60 Descending Washington Center
05:37PM 39.3169 -76.0503 40° Northeast 458 527 24,000 -60 Level Washington Center
05:38PM 39.4172 -75.9517 37° Northeast 458 527 23,900 -1,560 Descending Washington Center
05:40PM 39.6167 -75.7667 36° Northeast 407 468 19,200 -2,640 Descending Philadelphia TRACON
05:41PM 39.7000 -75.6833 38° Northeast 386 444 16,000 -2,880 Descending Philadelphia TRACON
05:42PM 39.7833 -75.6167 32° Northeast 340 391 13,700 -1,440 Descending Philadelphia TRACON
05:43PM 39.8667 -75.5333 37° Northeast 339 390 13,100 -360 Descending Philadelphia TRACON
05:44PM 39.9333 -75.4667 37° Northeast 309 356 13,000 -120 Descending Philadelphia TRACON
05:45PM 40.0167 -75.4000 31° Northeast 306 352 12,900 -540 Descending Philadelphia TRACON
05:46PM 40.0833 -75.3333 37° Northeast 308 354 12,000 -900 Descending Philadelphia TRACON
05:47PM 40.1500 -75.2833 30° Northeast 316 364 11,300 -660 Descending Philadelphia TRACON
05:48PM 40.2167 -75.2000 44° Northeast 305 351 10,700 -1,020 Descending Philadelphia TRACON
05:49PM 40.2833 -75.1333 37° Northeast 299 344 9,200 -1,560 Descending Philadelphia TRACON
05:50PM 40.3333 -75.0833 37° Northeast 300 345 7,900 -1,200 Descending New York TRACON
05:51PM 40.4000 -75.0167 37° Northeast 283 326 7,100 -480 Descending New York TRACON
05:52PM 40.4500 -74.9333 52° Northeast 279 321 7,000 -360 Descending New York TRACON
05:53PM 40.5000 -74.8667 45° Northeast 284 327 6,400 -1,020 Descending New York TRACON
05:54PM 40.5500 -74.7833 52° Northeast 281 323 5,000 -1,140 Descending New York TRACON
05:55PM 40.6167 -74.7167 37° Northeast 284 327 4,200 -480 Descending New York TRACON
05:56PM 40.6833 -74.6667 30° Northeast 276 318 4,100 -120 Descending New York TRACON
05:57PM 40.7500 -74.6333 21° North 264 304 4,000 -240 Descending New York TRACON
05:58PM 40.8000 -74.5667 45° Northeast 254 292 3,700 -480 Descending New York TRACON
05:59PM 40.8500 -74.5167 37° Northeast 193 222 3,200 -360 Descending New York TRACON
06:00PM 40.8833 -74.4667 49° Northeast 190 219 3,000 -600 Descending New York TRACON
06:01PM 40.8833 -74.4000 90° East 159 183 2,000 -840 Descending New York TRACON
06:02PM 40.8500 -74.3667 143° Southeast 156 180 1,500 -480 Descending New York TRACON
06:03PM 40.8167 -74.3833 201° Southwest 155 178 1,200 -300 Descending New York TRACON
06:05PM 40.7833 -74.4000 62° Northeast  Level FlightAware Approximate
06:12PM 40.7993 -74.4149 62° Northeast  Level Estimated
06:13PM 40.7993 -74.4149 62° Northeast  Level Estimated